sensor_id;sensor_type;location;lat;lon;timestamp;P1;durP1;ratioP1;P2;durP2;ratioP2
73642;SDS011;61938;48.652;9.292;2022-08-21T00:01:44;9.00;;;3.72;;
73642;SDS011;61938;48.652;9.292;2022-08-21T00:04:10;6.30;;;3.33;;
73642;SDS011;61938;48.652;9.292;2022-08-21T00:06:36;10.93;;;3.72;;
73642;SDS011;61938;48.652;9.292;2022-08-21T00:09:03;11.13;;;3.65;;
73642;SDS011;61938;48.652;9.292;2022-08-21T00:11:31;8.75;;;3.67;;
73642;SDS011;61938;48.652;9.292;2022-08-21T00:13:57;7.25;;;3.50;;
73642;SDS011;61938;48.652;9.292;2022-08-21T00:16:22;7.70;;;3.65;;
73642;SDS011;61938;48.652;9.292;2022-08-21T00:18:49;8.32;;;3.60;;
73642;SDS011;61938;48.652;9.292;2022-08-21T00:21:15;12.93;;;3.35;;
73642;SDS011;61938;48.652;9.292;2022-08-21T00:23:41;11.25;;;3.50;;
73642;SDS011;61938;48.652;9.292;2022-08-21T00:26:08;7.00;;;3.83;;
73642;SDS011;61938;48.652;9.292;2022-08-21T00:28:34;4.13;;;3.05;;
73642;SDS011;61938;48.652;9.292;2022-08-21T00:31:00;8.80;;;3.85;;
73642;SDS011;61938;48.652;9.292;2022-08-21T00:33:28;7.18;;;3.33;;
73642;SDS011;61938;48.652;9.292;2022-08-21T00:35:54;4.55;;;3.20;;
73642;SDS011;61938;48.652;9.292;2022-08-21T00:38:21;9.57;;;3.80;;
73642;SDS011;61938;48.652;9.292;2022-08-21T00:40:48;5.25;;;3.70;;
73642;SDS011;61938;48.652;9.292;2022-08-21T00:43:20;7.47;;;2.95;;
73642;SDS011;61938;48.652;9.292;2022-08-21T00:45:47;6.85;;;3.55;;
73642;SDS011;61938;48.652;9.292;2022-08-21T00:48:13;6.20;;;3.25;;
73642;SDS011;61938;48.652;9.292;2022-08-21T00:50:43;5.60;;;3.70;;
73642;SDS011;61938;48.652;9.292;2022-08-21T00:53:13;8.20;;;3.42;;
73642;SDS011;61938;48.652;9.292;2022-08-21T00:55:40;6.75;;;3.65;;
73642;SDS011;61938;48.652;9.292;2022-08-21T00:58:06;5.88;;;3.85;;
73642;SDS011;61938;48.652;9.292;2022-08-21T01:00:38;4.40;;;3.10;;
73642;SDS011;61938;48.652;9.292;2022-08-21T01:03:07;5.88;;;4.15;;
73642;SDS011;61938;48.652;9.292;2022-08-21T01:05:45;5.35;;;3.55;;
73642;SDS011;61938;48.652;9.292;2022-08-21T01:08:11;6.57;;;3.50;;
73642;SDS011;61938;48.652;9.292;2022-08-21T01:10:40;7.18;;;3.65;;
73642;SDS011;61938;48.652;9.292;2022-08-21T01:13:09;7.72;;;3.67;;
73642;SDS011;61938;48.652;9.292;2022-08-21T01:15:39;4.43;;;3.72;;
73642;SDS011;61938;48.652;9.292;2022-08-21T01:18:08;7.07;;;3.90;;
73642;SDS011;61938;48.652;9.292;2022-08-21T01:20:36;6.22;;;3.60;;
73642;SDS011;61938;48.652;9.292;2022-08-21T01:23:03;6.82;;;3.83;;
73642;SDS011;61938;48.652;9.292;2022-08-21T01:25:30;5.60;;;3.70;;
73642;SDS011;61938;48.652;9.292;2022-08-21T01:27:57;6.53;;;3.58;;
73642;SDS011;61938;48.652;9.292;2022-08-21T01:30:27;7.65;;;3.88;;
73642;SDS011;61938;48.652;9.292;2022-08-21T01:32:53;5.75;;;3.47;;
73642;SDS011;61938;48.652;9.292;2022-08-21T01:35:20;5.22;;;3.85;;
73642;SDS011;61938;48.652;9.292;2022-08-21T01:37:47;4.60;;;3.78;;
73642;SDS011;61938;48.652;9.292;2022-08-21T01:40:14;5.43;;;3.92;;
73642;SDS011;61938;48.652;9.292;2022-08-21T01:42:42;7.63;;;3.92;;
73642;SDS011;61938;48.652;9.292;2022-08-21T01:45:09;8.68;;;3.53;;
73642;SDS011;61938;48.652;9.292;2022-08-21T01:47:35;5.15;;;3.60;;
73642;SDS011;61938;48.652;9.292;2022-08-21T01:50:02;6.00;;;3.60;;
73642;SDS011;61938;48.652;9.292;2022-08-21T01:52:30;5.65;;;4.15;;
73642;SDS011;61938;48.652;9.292;2022-08-21T01:54:56;9.63;;;4.05;;
73642;SDS011;61938;48.652;9.292;2022-08-21T01:57:22;8.25;;;4.68;;
73642;SDS011;61938;48.652;9.292;2022-08-21T01:59:49;6.57;;;4.20;;
73642;SDS011;61938;48.652;9.292;2022-08-21T02:02:15;6.55;;;4.28;;
73642;SDS011;61938;48.652;9.292;2022-08-21T02:04:40;9.57;;;4.15;;
73642;SDS011;61938;48.652;9.292;2022-08-21T02:07:06;5.45;;;3.80;;
73642;SDS011;61938;48.652;9.292;2022-08-21T02:09:32;6.20;;;4.40;;
73642;SDS011;61938;48.652;9.292;2022-08-21T02:11:58;5.88;;;4.22;;
73642;SDS011;61938;48.652;9.292;2022-08-21T02:14:24;6.72;;;4.30;;
73642;SDS011;61938;48.652;9.292;2022-08-21T02:16:50;6.68;;;4.13;;
73642;SDS011;61938;48.652;9.292;2022-08-21T02:19:16;6.40;;;4.15;;
73642;SDS011;61938;48.652;9.292;2022-08-21T02:21:42;6.65;;;3.80;;
73642;SDS011;61938;48.652;9.292;2022-08-21T02:24:09;6.40;;;4.53;;
73642;SDS011;61938;48.652;9.292;2022-08-21T02:26:36;5.90;;;4.20;;
73642;SDS011;61938;48.652;9.292;2022-08-21T02:29:02;5.65;;;3.78;;
73642;SDS011;61938;48.652;9.292;2022-08-21T02:31:29;5.20;;;3.90;;
73642;SDS011;61938;48.652;9.292;2022-08-21T02:33:56;14.93;;;4.75;;
73642;SDS011;61938;48.652;9.292;2022-08-21T02:36:22;6.93;;;3.70;;
73642;SDS011;61938;48.652;9.292;2022-08-21T02:38:48;9.55;;;4.38;;
73642;SDS011;61938;48.652;9.292;2022-08-21T02:41:15;10.02;;;4.05;;
73642;SDS011;61938;48.652;9.292;2022-08-21T02:43:42;5.70;;;3.83;;
73642;SDS011;61938;48.652;9.292;2022-08-21T02:46:09;7.13;;;3.75;;
73642;SDS011;61938;48.652;9.292;2022-08-21T02:48:37;7.07;;;3.95;;
73642;SDS011;61938;48.652;9.292;2022-08-21T02:51:05;7.93;;;4.45;;
73642;SDS011;61938;48.652;9.292;2022-08-21T02:53:32;7.78;;;3.97;;
73642;SDS011;61938;48.652;9.292;2022-08-21T02:56:00;5.75;;;4.03;;
73642;SDS011;61938;48.652;9.292;2022-08-21T02:58:29;6.00;;;4.28;;
73642;SDS011;61938;48.652;9.292;2022-08-21T03:00:56;10.05;;;4.47;;
73642;SDS011;61938;48.652;9.292;2022-08-21T03:03:23;10.35;;;4.72;;
73642;SDS011;61938;48.652;9.292;2022-08-21T03:05:50;9.27;;;4.45;;
73642;SDS011;61938;48.652;9.292;2022-08-21T03:08:17;8.15;;;4.55;;
73642;SDS011;61938;48.652;9.292;2022-08-21T03:10:45;9.05;;;5.70;;
73642;SDS011;61938;48.652;9.292;2022-08-21T03:13:13;8.63;;;4.57;;
73642;SDS011;61938;48.652;9.292;2022-08-21T03:15:40;6.97;;;4.70;;
73642;SDS011;61938;48.652;9.292;2022-08-21T03:18:06;5.60;;;4.15;;
73642;SDS011;61938;48.652;9.292;2022-08-21T03:20:33;12.25;;;4.90;;
73642;SDS011;61938;48.652;9.292;2022-08-21T03:23:00;9.77;;;5.05;;
73642;SDS011;61938;48.652;9.292;2022-08-21T03:25:28;20.77;;;5.90;;
73642;SDS011;61938;48.652;9.292;2022-08-21T03:27:57;7.30;;;4.28;;
73642;SDS011;61938;48.652;9.292;2022-08-21T03:30:23;8.32;;;4.45;;
73642;SDS011;61938;48.652;9.292;2022-08-21T03:32:49;9.38;;;4.57;;
73642;SDS011;61938;48.652;9.292;2022-08-21T03:35:16;6.43;;;4.60;;
73642;SDS011;61938;48.652;9.292;2022-08-21T03:37:43;6.22;;;4.38;;
73642;SDS011;61938;48.652;9.292;2022-08-21T03:40:10;6.22;;;4.63;;
73642;SDS011;61938;48.652;9.292;2022-08-21T03:42:38;8.40;;;4.72;;
73642;SDS011;61938;48.652;9.292;2022-08-21T03:45:05;9.43;;;5.20;;
73642;SDS011;61938;48.652;9.292;2022-08-21T03:47:31;7.05;;;5.07;;
73642;SDS011;61938;48.652;9.292;2022-08-21T03:49:57;10.27;;;4.78;;
73642;SDS011;61938;48.652;9.292;2022-08-21T03:52:22;6.55;;;4.53;;
73642;SDS011;61938;48.652;9.292;2022-08-21T03:54:48;7.50;;;4.70;;
73642;SDS011;61938;48.652;9.292;2022-08-21T03:57:15;5.60;;;4.55;;
73642;SDS011;61938;48.652;9.292;2022-08-21T03:59:42;6.75;;;4.57;;
73642;SDS011;61938;48.652;9.292;2022-08-21T04:02:08;7.20;;;4.88;;
73642;SDS011;61938;48.652;9.292;2022-08-21T04:04:35;6.35;;;4.45;;
73642;SDS011;61938;48.652;9.292;2022-08-21T04:07:01;6.57;;;4.43;;
73642;SDS011;61938;48.652;9.292;2022-08-21T04:09:28;6.57;;;4.30;;
73642;SDS011;61938;48.652;9.292;2022-08-21T04:11:55;6.68;;;4.72;;
73642;SDS011;61938;48.652;9.292;2022-08-21T04:14:21;8.68;;;4.72;;
73642;SDS011;61938;48.652;9.292;2022-08-21T04:16:47;7.45;;;4.22;;
73642;SDS011;61938;48.652;9.292;2022-08-21T04:19:13;11.60;;;4.88;;
73642;SDS011;61938;48.652;9.292;2022-08-21T04:21:40;9.45;;;5.47;;
73642;SDS011;61938;48.652;9.292;2022-08-21T04:24:07;8.38;;;5.03;;
73642;SDS011;61938;48.652;9.292;2022-08-21T04:26:35;14.23;;;5.22;;
73642;SDS011;61938;48.652;9.292;2022-08-21T04:29:02;13.27;;;4.75;;
73642;SDS011;61938;48.652;9.292;2022-08-21T04:31:31;6.65;;;4.47;;
73642;SDS011;61938;48.652;9.292;2022-08-21T04:33:58;10.38;;;5.57;;
73642;SDS011;61938;48.652;9.292;2022-08-21T04:36:24;9.38;;;5.15;;
73642;SDS011;61938;48.652;9.292;2022-08-21T04:38:50;7.05;;;4.97;;
73642;SDS011;61938;48.652;9.292;2022-08-21T04:41:16;5.75;;;3.95;;
73642;SDS011;61938;48.652;9.292;2022-08-21T04:43:42;10.85;;;4.25;;
73642;SDS011;61938;48.652;9.292;2022-08-21T04:46:08;8.05;;;4.40;;
73642;SDS011;61938;48.652;9.292;2022-08-21T04:48:34;7.57;;;4.35;;
73642;SDS011;61938;48.652;9.292;2022-08-21T04:58:54;9.35;;;4.72;;
73642;SDS011;61938;48.652;9.292;2022-08-21T05:01:22;6.10;;;4.57;;
73642;SDS011;61938;48.652;9.292;2022-08-21T05:03:52;7.45;;;4.60;;
73642;SDS011;61938;48.652;9.292;2022-08-21T05:06:21;9.13;;;5.15;;
73642;SDS011;61938;48.652;9.292;2022-08-21T05:08:49;6.93;;;4.82;;
73642;SDS011;61938;48.652;9.292;2022-08-21T05:11:17;11.20;;;5.38;;
73642;SDS011;61938;48.652;9.292;2022-08-21T05:13:45;7.85;;;4.80;;
73642;SDS011;61938;48.652;9.292;2022-08-21T05:16:11;6.60;;;4.55;;
73642;SDS011;61938;48.652;9.292;2022-08-21T05:18:37;13.32;;;5.00;;
73642;SDS011;61938;48.652;9.292;2022-08-21T05:21:02;9.70;;;5.18;;
73642;SDS011;61938;48.652;9.292;2022-08-21T05:23:29;8.57;;;4.78;;
73642;SDS011;61938;48.652;9.292;2022-08-21T05:25:55;8.13;;;5.15;;
73642;SDS011;61938;48.652;9.292;2022-08-21T05:28:21;8.13;;;5.75;;
73642;SDS011;61938;48.652;9.292;2022-08-21T05:30:46;10.73;;;5.05;;
73642;SDS011;61938;48.652;9.292;2022-08-21T05:33:12;8.38;;;5.43;;
73642;SDS011;61938;48.652;9.292;2022-08-21T05:35:38;7.97;;;5.22;;
73642;SDS011;61938;48.652;9.292;2022-08-21T05:38:04;12.35;;;5.15;;
73642;SDS011;61938;48.652;9.292;2022-08-21T05:40:30;12.30;;;5.05;;
73642;SDS011;61938;48.652;9.292;2022-08-21T05:42:57;8.32;;;5.35;;
73642;SDS011;61938;48.652;9.292;2022-08-21T05:45:24;8.98;;;4.75;;
73642;SDS011;61938;48.652;9.292;2022-08-21T05:47:52;12.07;;;4.97;;
73642;SDS011;61938;48.652;9.292;2022-08-21T05:50:18;16.38;;;6.28;;
73642;SDS011;61938;48.652;9.292;2022-08-21T05:52:44;8.93;;;5.15;;
73642;SDS011;61938;48.652;9.292;2022-08-21T05:55:09;9.25;;;5.65;;
73642;SDS011;61938;48.652;9.292;2022-08-21T05:57:35;7.72;;;5.32;;
73642;SDS011;61938;48.652;9.292;2022-08-21T06:00:02;7.88;;;5.55;;
73642;SDS011;61938;48.652;9.292;2022-08-21T06:02:28;8.30;;;5.38;;
73642;SDS011;61938;48.652;9.292;2022-08-21T06:04:56;6.72;;;5.22;;
73642;SDS011;61938;48.652;9.292;2022-08-21T06:07:22;11.00;;;5.35;;
73642;SDS011;61938;48.652;9.292;2022-08-21T06:09:47;14.32;;;6.63;;
73642;SDS011;61938;48.652;9.292;2022-08-21T06:12:13;10.85;;;5.32;;
73642;SDS011;61938;48.652;9.292;2022-08-21T06:14:40;6.95;;;4.68;;
73642;SDS011;61938;48.652;9.292;2022-08-21T06:17:08;8.27;;;5.13;;
73642;SDS011;61938;48.652;9.292;2022-08-21T06:19:36;8.25;;;5.63;;
73642;SDS011;61938;48.652;9.292;2022-08-21T06:22:02;35.33;;;5.90;;
73642;SDS011;61938;48.652;9.292;2022-08-21T06:24:29;7.07;;;4.88;;
73642;SDS011;61938;48.652;9.292;2022-08-21T06:26:55;7.32;;;5.50;;
73642;SDS011;61938;48.652;9.292;2022-08-21T06:29:22;10.52;;;5.50;;
73642;SDS011;61938;48.652;9.292;2022-08-21T06:31:49;12.30;;;6.68;;
73642;SDS011;61938;48.652;9.292;2022-08-21T06:34:16;6.72;;;4.70;;
73642;SDS011;61938;48.652;9.292;2022-08-21T06:36:42;5.88;;;4.82;;
73642;SDS011;61938;48.652;9.292;2022-08-21T06:39:08;8.35;;;5.22;;
73642;SDS011;61938;48.652;9.292;2022-08-21T06:41:34;6.70;;;4.97;;
73642;SDS011;61938;48.652;9.292;2022-08-21T06:44:00;10.30;;;5.07;;
73642;SDS011;61938;48.652;9.292;2022-08-21T06:46:27;6.32;;;4.72;;
73642;SDS011;61938;48.652;9.292;2022-08-21T06:48:54;6.85;;;4.68;;
73642;SDS011;61938;48.652;9.292;2022-08-21T06:51:21;7.35;;;5.38;;
73642;SDS011;61938;48.652;9.292;2022-08-21T06:53:47;8.25;;;4.63;;
73642;SDS011;61938;48.652;9.292;2022-08-21T06:56:13;7.03;;;4.18;;
73642;SDS011;61938;48.652;9.292;2022-08-21T06:58:39;8.13;;;4.65;;
73642;SDS011;61938;48.652;9.292;2022-08-21T07:01:05;7.45;;;4.32;;
73642;SDS011;61938;48.652;9.292;2022-08-21T07:03:32;8.38;;;4.65;;
73642;SDS011;61938;48.652;9.292;2022-08-21T07:06:00;10.73;;;5.28;;
73642;SDS011;61938;48.652;9.292;2022-08-21T07:08:27;8.35;;;5.07;;
73642;SDS011;61938;48.652;9.292;2022-08-21T07:10:54;9.10;;;4.57;;
73642;SDS011;61938;48.652;9.292;2022-08-21T07:13:23;10.23;;;4.53;;
73642;SDS011;61938;48.652;9.292;2022-08-21T07:15:48;9.50;;;4.80;;
73642;SDS011;61938;48.652;9.292;2022-08-21T07:18:15;10.20;;;4.72;;
73642;SDS011;61938;48.652;9.292;2022-08-21T07:20:41;7.20;;;3.88;;
73642;SDS011;61938;48.652;9.292;2022-08-21T07:23:08;12.18;;;4.50;;
73642;SDS011;61938;48.652;9.292;2022-08-21T07:25:39;6.10;;;4.18;;
73642;SDS011;61938;48.652;9.292;2022-08-21T07:28:05;8.65;;;4.07;;
73642;SDS011;61938;48.652;9.292;2022-08-21T07:30:31;11.25;;;4.68;;
73642;SDS011;61938;48.652;9.292;2022-08-21T07:32:57;6.97;;;4.53;;
73642;SDS011;61938;48.652;9.292;2022-08-21T07:35:22;8.63;;;3.97;;
73642;SDS011;61938;48.652;9.292;2022-08-21T07:37:48;17.38;;;4.78;;
73642;SDS011;61938;48.652;9.292;2022-08-21T07:40:14;7.40;;;3.97;;
73642;SDS011;61938;48.652;9.292;2022-08-21T07:42:42;7.07;;;3.85;;
73642;SDS011;61938;48.652;9.292;2022-08-21T07:45:09;10.77;;;4.60;;
73642;SDS011;61938;48.652;9.292;2022-08-21T07:47:36;10.52;;;3.90;;
73642;SDS011;61938;48.652;9.292;2022-08-21T07:50:03;8.02;;;3.80;;
73642;SDS011;61938;48.652;9.292;2022-08-21T07:52:31;8.82;;;4.30;;
73642;SDS011;61938;48.652;9.292;2022-08-21T07:54:57;8.73;;;4.53;;
73642;SDS011;61938;48.652;9.292;2022-08-21T07:57:23;15.35;;;4.55;;
73642;SDS011;61938;48.652;9.292;2022-08-21T07:59:49;8.27;;;4.65;;
73642;SDS011;61938;48.652;9.292;2022-08-21T08:02:22;10.30;;;4.15;;
73642;SDS011;61938;48.652;9.292;2022-08-21T08:04:52;9.23;;;5.38;;
73642;SDS011;61938;48.652;9.292;2022-08-21T08:07:18;6.95;;;4.45;;
73642;SDS011;61938;48.652;9.292;2022-08-21T08:09:44;10.50;;;5.22;;
73642;SDS011;61938;48.652;9.292;2022-08-21T08:12:10;8.23;;;5.15;;
73642;SDS011;61938;48.652;9.292;2022-08-21T08:14:36;8.68;;;5.28;;
73642;SDS011;61938;48.652;9.292;2022-08-21T08:17:02;9.73;;;4.78;;
73642;SDS011;61938;48.652;9.292;2022-08-21T08:19:28;7.22;;;4.43;;
73642;SDS011;61938;48.652;9.292;2022-08-21T08:21:54;14.65;;;4.68;;
73642;SDS011;61938;48.652;9.292;2022-08-21T08:24:20;8.63;;;5.53;;
73642;SDS011;61938;48.652;9.292;2022-08-21T08:26:46;14.25;;;5.30;;
73642;SDS011;61938;48.652;9.292;2022-08-21T08:29:12;10.38;;;5.53;;
73642;SDS011;61938;48.652;9.292;2022-08-21T08:31:38;12.30;;;6.00;;
73642;SDS011;61938;48.652;9.292;2022-08-21T08:34:04;10.38;;;5.10;;
73642;SDS011;61938;48.652;9.292;2022-08-21T08:36:33;13.70;;;5.63;;
73642;SDS011;61938;48.652;9.292;2022-08-21T08:39:02;11.98;;;5.18;;
73642;SDS011;61938;48.652;9.292;2022-08-21T08:41:29;15.63;;;5.80;;
73642;SDS011;61938;48.652;9.292;2022-08-21T08:43:58;10.70;;;5.40;;
73642;SDS011;61938;48.652;9.292;2022-08-21T08:46:33;14.88;;;6.15;;
73642;SDS011;61938;48.652;9.292;2022-08-21T08:52:04;12.50;;;6.50;;
73642;SDS011;61938;48.652;9.292;2022-08-21T08:54:57;11.45;;;5.55;;
73642;SDS011;61938;48.652;9.292;2022-08-21T08:57:28;11.80;;;5.95;;
73642;SDS011;61938;48.652;9.292;2022-08-21T08:59:56;8.25;;;5.07;;
73642;SDS011;61938;48.652;9.292;2022-08-21T09:02:23;10.95;;;5.63;;
73642;SDS011;61938;48.652;9.292;2022-08-21T09:04:50;10.23;;;4.95;;
73642;SDS011;61938;48.652;9.292;2022-08-21T09:12:50;12.80;;;5.65;;
73642;SDS011;61938;48.652;9.292;2022-08-21T09:15:49;12.00;;;5.80;;
73642;SDS011;61938;48.652;9.292;2022-08-21T09:26:18;13.35;;;5.40;;
73642;SDS011;61938;48.652;9.292;2022-08-21T09:28:51;14.18;;;4.60;;
73642;SDS011;61938;48.652;9.292;2022-08-21T09:31:26;13.43;;;5.20;;
73642;SDS011;61938;48.652;9.292;2022-08-21T09:34:01;19.83;;;5.25;;
73642;SDS011;61938;48.652;9.292;2022-08-21T09:36:51;16.83;;;4.88;;
73642;SDS011;61938;48.652;9.292;2022-08-21T09:39:30;12.60;;;4.43;;
73642;SDS011;61938;48.652;9.292;2022-08-21T09:42:06;9.13;;;4.18;;
73642;SDS011;61938;48.652;9.292;2022-08-21T09:44:35;13.30;;;4.57;;
73642;SDS011;61938;48.652;9.292;2022-08-21T09:47:09;9.07;;;4.40;;
73642;SDS011;61938;48.652;9.292;2022-08-21T09:49:39;10.85;;;4.40;;
73642;SDS011;61938;48.652;9.292;2022-08-21T09:52:15;12.93;;;3.88;;
73642;SDS011;61938;48.652;9.292;2022-08-21T09:54:44;9.77;;;4.25;;
73642;SDS011;61938;48.652;9.292;2022-08-21T10:00:08;10.40;;;4.32;;
73642;SDS011;61938;48.652;9.292;2022-08-21T10:02:43;8.98;;;4.43;;
73642;SDS011;61938;48.652;9.292;2022-08-21T10:05:15;10.88;;;4.32;;
73642;SDS011;61938;48.652;9.292;2022-08-21T10:07:48;10.05;;;4.53;;
73642;SDS011;61938;48.652;9.292;2022-08-21T10:12:45;7.15;;;4.20;;
73642;SDS011;61938;48.652;9.292;2022-08-21T10:26:05;10.75;;;4.30;;
73642;SDS011;61938;48.652;9.292;2022-08-21T10:31:55;12.20;;;4.18;;
73642;SDS011;61938;48.652;9.292;2022-08-21T10:37:25;8.00;;;4.07;;
73642;SDS011;61938;48.652;9.292;2022-08-21T10:48:02;12.38;;;3.90;;
73642;SDS011;61938;48.652;9.292;2022-08-21T10:50:31;10.23;;;3.88;;
73642;SDS011;61938;48.652;9.292;2022-08-21T10:53:45;8.45;;;4.40;;
73642;SDS011;61938;48.652;9.292;2022-08-21T10:56:32;9.25;;;4.47;;
73642;SDS011;61938;48.652;9.292;2022-08-21T10:59:07;11.90;;;4.00;;
73642;SDS011;61938;48.652;9.292;2022-08-21T11:01:50;7.90;;;3.72;;
73642;SDS011;61938;48.652;9.292;2022-08-21T11:07:10;11.07;;;3.97;;
73642;SDS011;61938;48.652;9.292;2022-08-21T11:12:46;9.68;;;3.88;;
73642;SDS011;61938;48.652;9.292;2022-08-21T11:18:01;9.43;;;3.42;;
73642;SDS011;61938;48.652;9.292;2022-08-21T11:20:28;9.52;;;3.78;;
73642;SDS011;61938;48.652;9.292;2022-08-21T11:26:41;8.48;;;3.60;;
73642;SDS011;61938;48.652;9.292;2022-08-21T11:29:33;11.57;;;3.88;;
73642;SDS011;61938;48.652;9.292;2022-08-21T11:45:52;9.55;;;4.50;;
73642;SDS011;61938;48.652;9.292;2022-08-21T11:51:18;7.82;;;3.70;;
73642;SDS011;61938;48.652;9.292;2022-08-21T11:56:31;8.32;;;3.80;;
73642;SDS011;61938;48.652;9.292;2022-08-21T11:59:21;10.05;;;3.97;;
73642;SDS011;61938;48.652;9.292;2022-08-21T12:01:52;9.75;;;3.10;;
73642;SDS011;61938;48.652;9.292;2022-08-21T12:04:25;9.82;;;3.55;;
73642;SDS011;61938;48.652;9.292;2022-08-21T12:06:54;9.38;;;3.75;;
73642;SDS011;61938;48.652;9.292;2022-08-21T12:11:51;8.82;;;3.40;;
73642;SDS011;61938;48.652;9.292;2022-08-21T12:14:46;8.02;;;3.70;;
73642;SDS011;61938;48.652;9.292;2022-08-21T12:17:21;8.88;;;3.70;;
73642;SDS011;61938;48.652;9.292;2022-08-21T12:20:00;7.18;;;3.22;;
73642;SDS011;61938;48.652;9.292;2022-08-21T12:22:40;8.90;;;3.47;;
73642;SDS011;61938;48.652;9.292;2022-08-21T12:25:07;9.30;;;3.13;;
73642;SDS011;61938;48.652;9.292;2022-08-21T12:28:01;14.38;;;3.78;;
73642;SDS011;61938;48.652;9.292;2022-08-21T12:30:34;12.35;;;3.10;;
73642;SDS011;61938;48.652;9.292;2022-08-21T12:33:06;9.55;;;3.25;;
73642;SDS011;61938;48.652;9.292;2022-08-21T12:36:05;7.80;;;3.22;;
73642;SDS011;61938;48.652;9.292;2022-08-21T12:38:33;9.23;;;3.70;;
73642;SDS011;61938;48.652;9.292;2022-08-21T12:41:20;7.40;;;3.08;;
73642;SDS011;61938;48.652;9.292;2022-08-21T12:43:52;9.45;;;3.55;;
73642;SDS011;61938;48.652;9.292;2022-08-21T12:46:29;16.35;;;3.60;;
73642;SDS011;61938;48.652;9.292;2022-08-21T12:49:03;8.23;;;3.45;;
73642;SDS011;61938;48.652;9.292;2022-08-21T12:51:52;6.65;;;3.35;;
73642;SDS011;61938;48.652;9.292;2022-08-21T12:56:55;10.05;;;3.17;;
73642;SDS011;61938;48.652;9.292;2022-08-21T12:59:22;7.35;;;4.25;;
73642;SDS011;61938;48.652;9.292;2022-08-21T13:01:48;10.63;;;3.97;;
73642;SDS011;61938;48.652;9.292;2022-08-21T13:04:17;8.85;;;3.05;;
73642;SDS011;61938;48.652;9.292;2022-08-21T13:06:47;6.50;;;3.28;;
73642;SDS011;61938;48.652;9.292;2022-08-21T13:11:46;7.90;;;3.08;;
73642;SDS011;61938;48.652;9.292;2022-08-21T13:14:24;4.60;;;2.33;;
73642;SDS011;61938;48.652;9.292;2022-08-21T13:16:56;6.35;;;3.10;;
73642;SDS011;61938;48.652;9.292;2022-08-21T13:19:23;9.13;;;2.70;;
73642;SDS011;61938;48.652;9.292;2022-08-21T13:21:49;5.05;;;2.85;;
73642;SDS011;61938;48.652;9.292;2022-08-21T13:24:19;4.97;;;2.70;;
73642;SDS011;61938;48.652;9.292;2022-08-21T13:26:45;11.50;;;3.13;;
73642;SDS011;61938;48.652;9.292;2022-08-21T13:29:13;8.27;;;2.55;;
73642;SDS011;61938;48.652;9.292;2022-08-21T13:31:48;7.35;;;3.00;;
73642;SDS011;61938;48.652;9.292;2022-08-21T13:34:17;7.82;;;3.20;;
73642;SDS011;61938;48.652;9.292;2022-08-21T13:36:46;5.95;;;2.35;;
73642;SDS011;61938;48.652;9.292;2022-08-21T13:39:17;6.57;;;3.30;;
73642;SDS011;61938;48.652;9.292;2022-08-21T13:41:44;4.30;;;2.63;;
73642;SDS011;61938;48.652;9.292;2022-08-21T13:46:40;7.50;;;2.83;;
73642;SDS011;61938;48.652;9.292;2022-08-21T13:49:08;5.03;;;2.70;;
73642;SDS011;61938;48.652;9.292;2022-08-21T13:51:35;8.65;;;3.03;;
73642;SDS011;61938;48.652;9.292;2022-08-21T13:54:01;7.75;;;3.10;;
73642;SDS011;61938;48.652;9.292;2022-08-21T13:56:43;6.20;;;3.22;;
73642;SDS011;61938;48.652;9.292;2022-08-21T13:59:11;7.10;;;2.83;;
73642;SDS011;61938;48.652;9.292;2022-08-21T14:01:54;4.47;;;2.72;;
73642;SDS011;61938;48.652;9.292;2022-08-21T14:05:06;8.23;;;2.70;;
73642;SDS011;61938;48.652;9.292;2022-08-21T14:07:24;4.68;;;2.40;;
73642;SDS011;61938;48.652;9.292;2022-08-21T14:09:54;6.50;;;2.40;;
73642;SDS011;61938;48.652;9.292;2022-08-21T14:12:28;10.52;;;2.92;;
73642;SDS011;61938;48.652;9.292;2022-08-21T14:15:02;6.93;;;3.45;;
73642;SDS011;61938;48.652;9.292;2022-08-21T14:17:37;7.43;;;3.38;;
73642;SDS011;61938;48.652;9.292;2022-08-21T14:20:09;5.05;;;3.05;;
73642;SDS011;61938;48.652;9.292;2022-08-21T14:22:49;7.35;;;2.65;;
73642;SDS011;61938;48.652;9.292;2022-08-21T14:27:55;5.22;;;2.65;;
73642;SDS011;61938;48.652;9.292;2022-08-21T14:30:35;10.68;;;3.03;;
73642;SDS011;61938;48.652;9.292;2022-08-21T14:33:04;5.55;;;3.00;;
73642;SDS011;61938;48.652;9.292;2022-08-21T14:35:34;8.15;;;3.05;;
73642;SDS011;61938;48.652;9.292;2022-08-21T14:38:00;6.80;;;2.88;;
73642;SDS011;61938;48.652;9.292;2022-08-21T14:40:26;4.95;;;2.75;;
73642;SDS011;61938;48.652;9.292;2022-08-21T14:42:52;7.55;;;3.22;;
73642;SDS011;61938;48.652;9.292;2022-08-21T14:45:21;6.55;;;3.20;;
73642;SDS011;61938;48.652;9.292;2022-08-21T14:47:51;6.47;;;3.20;;
73642;SDS011;61938;48.652;9.292;2022-08-21T14:50:18;6.32;;;3.00;;
73642;SDS011;61938;48.652;9.292;2022-08-21T14:52:44;10.48;;;3.38;;
73642;SDS011;61938;48.652;9.292;2022-08-21T14:55:11;5.13;;;2.85;;
73642;SDS011;61938;48.652;9.292;2022-08-21T14:57:42;8.95;;;3.17;;
73642;SDS011;61938;48.652;9.292;2022-08-21T15:00:12;4.40;;;2.75;;
73642;SDS011;61938;48.652;9.292;2022-08-21T15:02:39;6.68;;;2.92;;
73642;SDS011;61938;48.652;9.292;2022-08-21T15:05:05;5.63;;;2.63;;
73642;SDS011;61938;48.652;9.292;2022-08-21T15:07:31;11.00;;;6.32;;
73642;SDS011;61938;48.652;9.292;2022-08-21T15:09:57;7.55;;;4.38;;
73642;SDS011;61938;48.652;9.292;2022-08-21T15:12:24;8.77;;;3.08;;
73642;SDS011;61938;48.652;9.292;2022-08-21T15:14:50;6.43;;;2.88;;
73642;SDS011;61938;48.652;9.292;2022-08-21T15:17:16;5.30;;;3.17;;
73642;SDS011;61938;48.652;9.292;2022-08-21T15:19:42;7.47;;;2.90;;
73642;SDS011;61938;48.652;9.292;2022-08-21T15:22:08;9.43;;;3.40;;
73642;SDS011;61938;48.652;9.292;2022-08-21T15:24:33;7.43;;;3.05;;
73642;SDS011;61938;48.652;9.292;2022-08-21T15:27:00;5.18;;;2.90;;
73642;SDS011;61938;48.652;9.292;2022-08-21T15:29:29;5.82;;;2.60;;
73642;SDS011;61938;48.652;9.292;2022-08-21T15:32:03;6.57;;;2.85;;
73642;SDS011;61938;48.652;9.292;2022-08-21T15:34:48;6.22;;;2.75;;
73642;SDS011;61938;48.652;9.292;2022-08-21T15:37:14;5.25;;;2.75;;
73642;SDS011;61938;48.652;9.292;2022-08-21T15:39:40;5.15;;;2.83;;
73642;SDS011;61938;48.652;9.292;2022-08-21T15:42:06;7.55;;;2.42;;
73642;SDS011;61938;48.652;9.292;2022-08-21T15:44:32;4.88;;;2.47;;
73642;SDS011;61938;48.652;9.292;2022-08-21T15:46:58;7.05;;;3.13;;
73642;SDS011;61938;48.652;9.292;2022-08-21T15:49:24;4.18;;;2.60;;
73642;SDS011;61938;48.652;9.292;2022-08-21T15:51:50;4.90;;;3.20;;
73642;SDS011;61938;48.652;9.292;2022-08-21T15:54:16;7.30;;;2.95;;
73642;SDS011;61938;48.652;9.292;2022-08-21T15:56:42;4.28;;;2.35;;
73642;SDS011;61938;48.652;9.292;2022-08-21T15:59:13;4.97;;;2.70;;
73642;SDS011;61938;48.652;9.292;2022-08-21T16:01:44;5.82;;;2.42;;
73642;SDS011;61938;48.652;9.292;2022-08-21T16:04:21;5.93;;;3.00;;
73642;SDS011;61938;48.652;9.292;2022-08-21T16:06:50;5.43;;;2.63;;
73642;SDS011;61938;48.652;9.292;2022-08-21T16:09:16;3.35;;;2.17;;
73642;SDS011;61938;48.652;9.292;2022-08-21T16:11:43;5.57;;;2.65;;
73642;SDS011;61938;48.652;9.292;2022-08-21T16:14:10;4.82;;;2.83;;
73642;SDS011;61938;48.652;9.292;2022-08-21T16:16:37;5.07;;;2.63;;
73642;SDS011;61938;48.652;9.292;2022-08-21T16:19:03;5.13;;;2.75;;
73642;SDS011;61938;48.652;9.292;2022-08-21T16:21:31;6.50;;;3.17;;
73642;SDS011;61938;48.652;9.292;2022-08-21T16:23:57;5.32;;;2.75;;
73642;SDS011;61938;48.652;9.292;2022-08-21T16:26:23;4.38;;;2.65;;
73642;SDS011;61938;48.652;9.292;2022-08-21T16:28:50;4.35;;;2.60;;
73642;SDS011;61938;48.652;9.292;2022-08-21T16:31:19;5.38;;;2.58;;
73642;SDS011;61938;48.652;9.292;2022-08-21T16:33:47;7.15;;;2.63;;
73642;SDS011;61938;48.652;9.292;2022-08-21T16:36:15;6.40;;;2.80;;